createdAt,value
2023-03-30T00:00:48.022Z,5.78
2023-03-30T00:03:39.195Z,6.90
2023-03-30T00:06:29.689Z,6.88
2023-03-30T00:09:18.377Z,9.32
2023-03-30T00:12:07.868Z,8.30
2023-03-30T00:14:57.925Z,8.57
2023-03-30T00:17:48.076Z,5.70
2023-03-30T00:20:37.499Z,7.43
2023-03-30T00:23:27.531Z,10.52
2023-03-30T00:26:17.482Z,10.95
2023-03-30T00:29:07.352Z,8.60
2023-03-30T00:31:57.437Z,6.00
2023-03-30T00:34:46.937Z,9.18
2023-03-30T00:37:37.357Z,10.50
2023-03-30T00:40:27.037Z,8.38
2023-03-30T00:43:17.491Z,8.25
2023-03-30T00:46:06.700Z,7.35
2023-03-30T00:49:00.519Z,11.40
2023-03-30T00:51:51.231Z,7.30
2023-03-30T00:54:41.376Z,6.07
2023-03-30T00:57:31.590Z,8.30
2023-03-30T01:00:22.591Z,5.47
2023-03-30T01:03:18.731Z,7.60
2023-03-30T01:06:10.951Z,8.23
2023-03-30T01:08:59.971Z,7.85
2023-03-30T01:11:49.064Z,6.57
2023-03-30T01:14:39.181Z,8.65
2023-03-30T01:17:33.488Z,9.98
2023-03-30T01:21:04.256Z,6.80
2023-03-30T01:24:35.184Z,10.05
2023-03-30T01:27:51.714Z,8.95
2023-03-30T01:31:06.729Z,9.38
2023-03-30T01:34:12.199Z,8.60
2023-03-30T01:37:40.319Z,13.63
2023-03-30T01:40:34.253Z,10.30
2023-03-30T01:43:36.838Z,7.82
2023-03-30T01:46:31.047Z,10.60
2023-03-30T01:49:30.150Z,13.18
2023-03-30T01:52:25.083Z,6.88
2023-03-30T01:55:18.246Z,9.70
2023-03-30T01:58:13.539Z,11.77
2023-03-30T02:01:06.914Z,9.75
2023-03-30T02:03:59.973Z,8.60
2023-03-30T02:06:51.460Z,7.13
2023-03-30T02:09:44.766Z,5.82
2023-03-30T02:12:35.026Z,7.18
2023-03-30T02:15:27.498Z,7.03
2023-03-30T02:18:35.047Z,9.50
2023-03-30T02:21:23.857Z,6.70
2023-03-30T02:24:18.761Z,9.20
2023-03-30T02:27:07.888Z,7.80
2023-03-30T02:29:58.744Z,7.57
2023-03-30T02:32:51.632Z,9.57
2023-03-30T02:35:58.418Z,9.75
2023-03-30T02:39:05.989Z,5.85
2023-03-30T02:42:16.689Z,8.00
2023-03-30T02:45:24.549Z,6.82
2023-03-30T02:48:28.723Z,12.57
2023-03-30T02:51:35.362Z,10.68
2023-03-30T02:54:46.406Z,10.98
2023-03-30T02:58:04.334Z,11.20
2023-03-30T03:01:18.029Z,10.57
2023-03-30T03:04:16.210Z,17.17
2023-03-30T03:07:28.313Z,11.43
2023-03-30T03:10:17.534Z,11.77
2023-03-30T03:13:06.199Z,18.50
2023-03-30T03:15:56.896Z,13.52
2023-03-30T03:18:47.107Z,18.80
2023-03-30T03:21:37.910Z,17.13
2023-03-30T03:24:26.594Z,18.38
2023-03-30T03:27:35.804Z,15.23
2023-03-30T03:30:33.079Z,11.55
2023-03-30T03:33:28.987Z,12.82
2023-03-30T03:36:37.934Z,11.18
2023-03-30T03:39:27.049Z,14.23
2023-03-30T03:42:24.714Z,14.75
2023-03-30T03:45:23.763Z,12.07
2023-03-30T03:48:18.306Z,10.63
2023-03-30T03:51:11.302Z,16.52
2023-03-30T03:54:01.741Z,11.32
2023-03-30T03:56:51.963Z,10.20
2023-03-30T03:59:41.561Z,11.98
2023-03-30T04:02:30.815Z,13.55
2023-03-30T04:05:19.734Z,14.30
2023-03-30T04:08:10.633Z,10.07
2023-03-30T04:11:08.022Z,9.02
2023-03-30T04:14:15.879Z,12.27
2023-03-30T04:17:23.837Z,11.93
2023-03-30T04:20:29.278Z,11.23
2023-03-30T04:23:48.995Z,14.30
2023-03-30T04:26:42.788Z,11.55
2023-03-30T04:29:49.913Z,13.20
2023-03-30T04:33:04.170Z,10.50
2023-03-30T04:36:19.042Z,13.20
2023-03-30T04:39:33.598Z,11.90
2023-03-30T04:42:38.389Z,13.88
2023-03-30T04:46:05.477Z,12.27
2023-03-30T04:49:25.789Z,8.77
2023-03-30T04:52:43.599Z,12.13
2023-03-30T04:55:52.670Z,6.70
2023-03-30T04:59:01.703Z,13.30
2023-03-30T05:02:06.225Z,12.15
2023-03-30T05:05:07.423Z,13.20
2023-03-30T05:08:14.562Z,10.07
2023-03-30T05:11:13.591Z,10.25
2023-03-30T05:14:17.058Z,15.48
2023-03-30T05:17:23.970Z,19.05
2023-03-30T05:20:37.579Z,13.07
2023-03-30T05:23:34.473Z,17.42
2023-03-30T05:26:57.809Z,17.67
2023-03-30T05:29:59.410Z,13.23
2023-03-30T05:33:01.419Z,14.25
2023-03-30T05:36:11.223Z,16.02
2023-03-30T05:39:10.019Z,10.88
2023-03-30T05:42:13.538Z,13.25
2023-03-30T05:45:15.594Z,14.00
2023-03-30T05:48:23.563Z,15.90
2023-03-30T05:51:27.778Z,12.48
2023-03-30T05:54:33.917Z,15.60
2023-03-30T05:57:47.072Z,15.43
2023-03-30T06:01:00.480Z,14.43
2023-03-30T06:03:56.775Z,14.95
2023-03-30T06:06:47.780Z,15.68
2023-03-30T06:09:38.547Z,20.08
2023-03-30T06:12:39.335Z,16.60
2023-03-30T06:15:34.105Z,18.33
2023-03-30T06:18:31.056Z,15.30
2023-03-30T06:21:25.205Z,14.32
2023-03-30T06:24:36.798Z,16.38
2023-03-30T06:27:25.502Z,15.75
2023-03-30T06:30:15.769Z,20.27
2023-03-30T06:33:08.093Z,16.63
2023-03-30T06:36:14.114Z,20.90
2023-03-30T06:39:06.527Z,18.55
2023-03-30T06:41:56.778Z,12.27
2023-03-30T06:44:56.259Z,18.55
2023-03-30T06:47:46.419Z,15.00
2023-03-30T06:50:36.735Z,16.92
2023-03-30T06:53:31.218Z,13.45
2023-03-30T06:56:19.887Z,16.02
2023-03-30T06:59:26.351Z,13.60
2023-03-30T07:02:34.113Z,20.27
2023-03-30T07:05:43.981Z,13.13
2023-03-30T07:08:40.258Z,11.68
2023-03-30T07:11:31.985Z,13.13
2023-03-30T07:14:20.888Z,14.07
2023-03-30T07:17:11.027Z,30.48
2023-03-30T07:19:59.767Z,13.52
2023-03-30T07:22:48.648Z,16.38
2023-03-30T07:25:39.686Z,14.65
2023-03-30T07:28:38.585Z,10.13
2023-03-30T07:31:27.921Z,13.15
2023-03-30T07:34:17.722Z,15.20
2023-03-30T07:37:12.140Z,14.30
2023-03-30T07:40:01.527Z,16.88
2023-03-30T07:42:52.362Z,13.75
2023-03-30T07:45:41.949Z,11.25
2023-03-30T07:48:35.762Z,12.10
2023-03-30T07:51:27.366Z,16.15
2023-03-30T07:54:24.328Z,15.40
2023-03-30T07:57:38.926Z,14.15
2023-03-30T08:00:29.665Z,13.05
2023-03-30T08:03:41.261Z,15.40
2023-03-30T08:06:32.521Z,11.48
2023-03-30T08:09:22.525Z,11.95
2023-03-30T08:12:11.787Z,13.35
2023-03-30T08:15:02.232Z,14.07
2023-03-30T08:17:53.854Z,12.63
2023-03-30T08:20:43.911Z,15.07
2023-03-30T08:23:33.627Z,12.35
2023-03-30T08:26:22.450Z,21.05
2023-03-30T08:29:11.764Z,14.15
2023-03-30T08:32:00.682Z,11.18
2023-03-30T08:34:52.297Z,13.63
2023-03-30T08:37:41.025Z,11.05
2023-03-30T08:40:30.103Z,13.98
2023-03-30T08:43:31.003Z,11.73
2023-03-30T08:46:21.103Z,15.82
2023-03-30T08:49:15.970Z,12.48
2023-03-30T08:52:06.917Z,9.00
2023-03-30T08:54:58.366Z,8.27
2023-03-30T08:57:53.705Z,12.85
2023-03-30T09:00:48.654Z,10.15
2023-03-30T09:03:41.909Z,12.77
2023-03-30T09:06:45.230Z,13.30
2023-03-30T09:09:42.641Z,14.60
2023-03-30T09:12:40.537Z,8.30
2023-03-30T09:15:33.034Z,9.90
2023-03-30T09:18:27.054Z,14.30
2023-03-30T09:21:17.718Z,15.68
2023-03-30T09:24:14.880Z,13.15
2023-03-30T09:27:11.874Z,14.77
2023-03-30T09:30:17.369Z,14.75
2023-03-30T09:33:14.747Z,14.00
2023-03-30T09:36:15.477Z,20.15
2023-03-30T09:39:11.368Z,9.23
2023-03-30T09:42:14.642Z,14.35
2023-03-30T09:45:09.968Z,13.90
2023-03-30T09:48:04.952Z,11.85
2023-03-30T09:50:54.328Z,12.90
2023-03-30T09:53:47.335Z,14.18
2023-03-30T09:56:41.662Z,12.23
2023-03-30T09:59:35.349Z,13.45
2023-03-30T10:02:25.563Z,12.68
2023-03-30T10:05:19.076Z,12.63
2023-03-30T10:08:23.013Z,18.90
2023-03-30T10:11:14.009Z,12.52
2023-03-30T10:14:02.689Z,10.73
2023-03-30T10:16:53.270Z,14.02
2023-03-30T10:19:48.170Z,13.88
2023-03-30T10:22:38.674Z,11.00
2023-03-30T10:25:29.752Z,13.48
2023-03-30T10:28:21.667Z,13.50
2023-03-30T10:31:17.862Z,12.05
2023-03-30T10:34:17.205Z,12.82
2023-03-30T10:37:14.286Z,9.65
2023-03-30T10:40:13.092Z,10.95
2023-03-30T10:43:02.949Z,12.98
2023-03-30T10:45:54.736Z,11.10
2023-03-30T10:48:56.757Z,10.98
2023-03-30T10:52:01.765Z,10.35
2023-03-30T10:54:57.917Z,11.80
2023-03-30T10:57:54.762Z,9.75
2023-03-30T11:00:53.501Z,12.55
2023-03-30T11:03:48.056Z,9.60
2023-03-30T11:06:40.994Z,12.23
2023-03-30T11:09:36.192Z,11.63
2023-03-30T11:12:30.855Z,12.75
2023-03-30T11:15:26.422Z,11.82
2023-03-30T11:18:19.210Z,12.27
2023-03-30T11:21:14.017Z,13.75
2023-03-30T11:24:08.113Z,16.52
2023-03-30T11:27:04.203Z,15.25
2023-03-30T11:29:59.090Z,13.50
2023-03-30T11:32:53.964Z,14.05
2023-03-30T11:35:48.160Z,17.65
2023-03-30T11:38:44.234Z,20.58
2023-03-30T11:41:38.181Z,12.88
2023-03-30T11:44:28.992Z,11.25
2023-03-30T11:47:38.524Z,12.93
2023-03-30T11:50:39.839Z,12.35
2023-03-30T11:53:37.474Z,16.00
2023-03-30T11:56:35.829Z,13.60
2023-03-30T11:59:35.621Z,15.05
2023-03-30T12:02:31.226Z,13.63
2023-03-30T12:05:28.114Z,18.23
2023-03-30T12:08:38.677Z,12.68
2023-03-30T12:11:34.976Z,18.40
2023-03-30T12:14:37.691Z,9.52
2023-03-30T12:17:38.242Z,16.30
2023-03-30T12:20:35.794Z,11.57
2023-03-30T12:23:39.539Z,12.90
2023-03-30T12:26:31.024Z,10.75
2023-03-30T12:29:58.440Z,15.40
2023-03-30T12:32:32.466Z,9.07
2023-03-30T12:35:59.702Z,13.55
2023-03-30T12:38:51.333Z,9.75
2023-03-30T12:41:43.098Z,7.82
2023-03-30T12:44:40.053Z,5.47
2023-03-30T12:47:44.138Z,7.13
2023-03-30T12:50:43.345Z,11.73
2023-03-30T12:53:49.698Z,6.88
2023-03-30T12:56:41.085Z,9.30
2023-03-30T12:59:54.423Z,8.48
2023-03-30T13:03:03.708Z,8.02
2023-03-30T13:05:55.534Z,7.28
2023-03-30T13:08:44.170Z,13.07
2023-03-30T13:11:44.982Z,8.85
2023-03-30T13:14:45.924Z,6.68
2023-03-30T13:17:59.241Z,10.60
2023-03-30T13:21:06.123Z,8.07
2023-03-30T13:24:22.488Z,9.15
2023-03-30T13:27:22.454Z,9.93
2023-03-30T13:30:14.437Z,6.55
2023-03-30T13:33:16.003Z,7.68
2023-03-30T13:36:15.533Z,7.32
2023-03-30T13:39:13.673Z,7.35
2023-03-30T13:42:18.714Z,8.63
2023-03-30T13:45:19.146Z,7.35
2023-03-30T13:48:25.083Z,7.43
2023-03-30T13:51:17.401Z,6.40
2023-03-30T13:54:13.844Z,9.07
2023-03-30T13:57:07.596Z,8.85
2023-03-30T14:00:04.330Z,8.65
2023-03-30T14:02:55.357Z,6.25
2023-03-30T14:05:45.385Z,6.45
2023-03-30T14:08:36.601Z,6.32
2023-03-30T14:11:34.179Z,5.50
2023-03-30T14:14:28.348Z,7.90
2023-03-30T14:17:22.554Z,5.20
2023-03-30T14:20:22.238Z,6.85
2023-03-30T14:23:17.448Z,5.78
2023-03-30T14:26:13.851Z,5.60
2023-03-30T14:29:11.097Z,4.93
2023-03-30T14:32:08.925Z,5.05
2023-03-30T14:34:58.572Z,4.55
2023-03-30T14:37:52.174Z,4.88
2023-03-30T14:40:43.906Z,4.35
2023-03-30T14:43:32.942Z,5.35
2023-03-30T14:46:24.881Z,6.60
2023-03-30T14:49:19.798Z,7.32
2023-03-30T14:52:11.059Z,6.95
2023-03-30T14:55:06.636Z,28.52
2023-03-30T14:57:59.542Z,6.00
2023-03-30T15:00:49.026Z,6.95
2023-03-30T15:03:39.646Z,3.75
2023-03-30T15:06:31.041Z,10.38
2023-03-30T15:09:21.318Z,7.60
2023-03-30T15:12:20.255Z,5.57
2023-03-30T15:15:16.581Z,7.13
2023-03-30T15:18:06.173Z,5.90
2023-03-30T15:20:56.553Z,4.90
2023-03-30T15:23:48.307Z,6.85
2023-03-30T15:26:44.729Z,6.05
2023-03-30T15:29:34.746Z,6.05
2023-03-30T15:32:30.302Z,5.97
2023-03-30T15:35:23.519Z,5.15
2023-03-30T15:38:17.340Z,10.27
2023-03-30T15:41:14.541Z,7.13
2023-03-30T15:44:12.508Z,4.70
2023-03-30T15:47:02.302Z,5.40
2023-03-30T15:49:53.430Z,6.97
2023-03-30T15:52:45.358Z,8.55
2023-03-30T15:55:34.934Z,4.95
2023-03-30T15:58:28.258Z,5.78
2023-03-30T16:01:17.295Z,5.82
2023-03-30T16:04:07.113Z,5.32
2023-03-30T16:06:57.846Z,8.77
2023-03-30T16:09:47.078Z,5.53
2023-03-30T16:12:36.487Z,7.53
2023-03-30T16:15:30.315Z,8.45
2023-03-30T16:18:19.528Z,6.90
2023-03-30T16:21:10.762Z,7.68
2023-03-30T16:24:00.791Z,8.52
2023-03-30T16:26:49.415Z,8.63
2023-03-30T16:29:39.989Z,9.57
2023-03-30T16:32:35.256Z,10.15
2023-03-30T16:35:25.292Z,6.95
2023-03-30T16:38:16.408Z,9.00
2023-03-30T16:41:07.780Z,8.85
2023-03-30T16:43:56.939Z,8.05
2023-03-30T16:46:46.721Z,7.97
2023-03-30T16:49:36.542Z,7.78
2023-03-30T16:52:25.290Z,10.23
2023-03-30T16:55:14.915Z,4.78
2023-03-30T16:58:05.622Z,7.32
2023-03-30T17:00:56.656Z,6.70
2023-03-30T17:03:45.764Z,6.90
2023-03-30T17:06:34.830Z,7.30
2023-03-30T17:09:24.278Z,8.40
2023-03-30T17:12:13.489Z,6.00
2023-03-30T17:15:03.762Z,7.35
2023-03-30T17:17:53.665Z,6.78
2023-03-30T17:20:45.021Z,6.70
2023-03-30T17:23:34.570Z,7.43
2023-03-30T17:26:23.403Z,6.72
2023-03-30T17:29:12.545Z,7.32
2023-03-30T17:32:02.688Z,7.03
2023-03-30T17:34:52.134Z,5.57
2023-03-30T17:37:40.944Z,9.00
2023-03-30T17:40:32.211Z,6.00
2023-03-30T17:43:20.994Z,7.82
2023-03-30T17:46:11.934Z,8.88
2023-03-30T17:49:02.594Z,6.22
2023-03-30T17:51:52.482Z,7.40
2023-03-30T17:54:43.004Z,14.52
2023-03-30T17:57:32.307Z,6.70
2023-03-30T18:00:25.691Z,5.72
2023-03-30T18:03:15.123Z,4.38
2023-03-30T18:06:06.299Z,6.88
2023-03-30T18:08:55.929Z,9.48
2023-03-30T18:11:45.070Z,6.00
2023-03-30T18:14:33.681Z,5.32
2023-03-30T18:17:23.207Z,5.93
2023-03-30T18:20:18.145Z,6.47
2023-03-30T18:23:09.863Z,4.25
2023-03-30T18:25:58.769Z,4.97
2023-03-30T18:28:48.228Z,5.75
2023-03-30T18:31:36.929Z,5.20
2023-03-30T18:34:26.041Z,5.10
2023-03-30T18:37:14.678Z,4.93
2023-03-30T18:40:14.795Z,4.78
2023-03-30T18:43:03.595Z,7.63
2023-03-30T18:45:52.855Z,7.15
2023-03-30T18:48:41.550Z,4.15
2023-03-30T18:51:31.209Z,6.53
2023-03-30T18:54:19.939Z,5.55
2023-03-30T18:57:11.218Z,7.60
2023-03-30T19:00:03.187Z,8.38
2023-03-30T19:02:52.586Z,7.68
2023-03-30T19:05:42.320Z,5.78
2023-03-30T19:08:30.973Z,8.77
2023-03-30T19:11:23.649Z,7.03
2023-03-30T19:14:14.465Z,9.80
2023-03-30T19:17:03.166Z,10.13
2023-03-30T19:19:51.938Z,7.80
2023-03-30T19:22:40.630Z,9.38
2023-03-30T19:25:29.434Z,8.75
2023-03-30T19:28:18.806Z,8.38
2023-03-30T19:31:13.334Z,10.48
2023-03-30T19:34:02.167Z,10.18
2023-03-30T19:36:51.750Z,13.90
2023-03-30T19:39:41.133Z,12.25
2023-03-30T19:42:32.428Z,11.60
2023-03-30T19:45:23.659Z,8.30
2023-03-30T19:48:14.320Z,9.52
2023-03-30T19:51:03.165Z,7.70
2023-03-30T19:53:52.376Z,7.63
2023-03-30T19:56:41.120Z,7.80
2023-03-30T19:59:30.229Z,10.93
2023-03-30T20:02:19.784Z,10.18
2023-03-30T20:05:12.844Z,7.93
2023-03-30T20:08:10.478Z,10.65
2023-03-30T20:11:08.002Z,7.90
2023-03-30T20:13:56.657Z,7.88
2023-03-30T20:16:45.625Z,7.40
2023-03-30T20:19:34.967Z,7.50
2023-03-30T20:22:25.256Z,7.10
2023-03-30T20:25:17.170Z,9.25
2023-03-30T20:28:06.038Z,7.53
2023-03-30T20:30:56.536Z,5.75
2023-03-30T20:33:45.315Z,9.00
2023-03-30T20:36:34.057Z,6.15
2023-03-30T20:39:27.129Z,8.07
2023-03-30T20:42:18.019Z,8.20
2023-03-30T20:45:08.880Z,11.88
2023-03-30T20:47:57.587Z,11.15
2023-03-30T20:50:47.655Z,11.73
2023-03-30T20:53:36.668Z,10.75
2023-03-30T20:56:28.716Z,6.38
2023-03-30T20:59:17.420Z,10.23
2023-03-30T21:02:06.389Z,8.85
2023-03-30T21:04:57.969Z,5.05
2023-03-30T21:07:47.442Z,6.63
2023-03-30T21:10:36.465Z,6.88
2023-03-30T21:13:28.181Z,10.15
2023-03-30T21:16:17.510Z,13.32
2023-03-30T21:19:06.615Z,9.95
2023-03-30T21:21:56.130Z,6.07
2023-03-30T21:24:44.737Z,5.60
2023-03-30T21:27:33.781Z,6.50
2023-03-30T21:30:23.758Z,6.57
2023-03-30T21:33:12.919Z,8.18
2023-03-30T21:36:01.640Z,9.30
2023-03-30T21:38:51.008Z,4.82
2023-03-30T21:41:39.664Z,4.90
2023-03-30T21:44:28.751Z,6.40
2023-03-30T21:47:18.726Z,6.95
2023-03-30T21:50:09.316Z,5.53
2023-03-30T21:52:59.188Z,6.35
2023-03-30T21:55:48.244Z,6.45
2023-03-30T21:58:36.881Z,7.50
2023-03-30T22:01:27.092Z,6.53
2023-03-30T22:04:17.114Z,6.50
2023-03-30T22:07:06.445Z,5.85
2023-03-30T22:09:58.032Z,6.53
2023-03-30T22:12:46.958Z,5.93
2023-03-30T22:15:36.826Z,5.45
2023-03-30T22:18:25.864Z,6.93
2023-03-30T22:21:18.778Z,5.70
2023-03-30T22:24:08.769Z,9.45
2023-03-30T22:26:58.150Z,5.88
2023-03-30T22:29:46.759Z,9.70
2023-03-30T22:32:35.842Z,8.18
2023-03-30T22:35:24.581Z,5.10
2023-03-30T22:38:16.563Z,4.00
2023-03-30T22:41:07.855Z,5.95
2023-03-30T22:43:58.891Z,7.80
2023-03-30T22:46:48.008Z,8.57
2023-03-30T22:49:36.913Z,4.88
2023-03-30T22:52:26.078Z,5.80
2023-03-30T22:55:17.884Z,6.18
2023-03-30T22:58:07.124Z,5.05
2023-03-30T23:01:01.195Z,3.95
2023-03-30T23:03:50.852Z,6.22
2023-03-30T23:06:39.812Z,6.43
2023-03-30T23:09:29.790Z,4.68
2023-03-30T23:12:19.872Z,7.15
2023-03-30T23:15:10.713Z,7.63
2023-03-30T23:17:59.636Z,6.38
2023-03-30T23:20:48.975Z,4.97
2023-03-30T23:23:39.171Z,6.63
2023-03-30T23:26:28.525Z,5.60
2023-03-30T23:29:19.935Z,5.68
2023-03-30T23:32:09.930Z,6.78
2023-03-30T23:34:58.554Z,7.50
2023-03-30T23:37:47.644Z,5.53
2023-03-30T23:40:36.308Z,5.40
2023-03-30T23:43:25.453Z,6.15
2023-03-30T23:46:16.143Z,5.50
2023-03-30T23:49:05.270Z,6.85
2023-03-30T23:51:54.331Z,4.30
2023-03-30T23:54:43.051Z,7.22
2023-03-30T23:57:32.158Z,6.85
